Time;durP1;ratioP1;P1;durP2;ratioP2;P2;SDS_P1;SDS_P2;PMS_P1;PMS_P2;Temp;Humidity;BMP_temperature;BMP_pressure;BME280_temperature;BME280_humidity;BME280_pressure;Samples;Min_cycle;Max_cycle;Signal;HPM_P1;HPM_P2
2023/11/24 00:00:04;;;;;;;0.10;0.00;;;;;;;20.72;nan;100368.88;7395756;19;20468;-89
2023/11/24 00:02:38;;;;;;;0.05;0.00;;;;;;;21.20;nan;100375.72;7396052;19;20029;-88
2023/11/24 00:05:07;;;;;;;2.55;0.50;;;;;;;21.38;nan;100360.75;7396730;19;20009;-89
2023/11/24 00:07:36;;;;;;;0.10;0.00;;;;;;;22.23;nan;100376.63;7395250;19;20040;-89
2023/11/24 00:10:04;;;;;;;0.10;0.00;;;;;;;22.34;nan;100371.53;7406729;19;19998;-89
2023/11/24 00:12:31;;;;;;;0.10;0.10;;;;;;;21.31;nan;100378.41;7395830;19;20013;-89
2023/11/24 00:15:00;;;;;;;0.20;0.20;;;;;;;19.94;nan;100387.94;7396455;19;20010;-90
2023/11/24 00:17:26;;;;;;;0.10;0.00;;;;;;;24.21;nan;100401.22;7395601;19;20011;-89
2023/11/24 00:19:52;;;;;;;0.10;0.10;;;;;;;25.90;nan;100386.59;7396005;19;20010;-89
2023/11/24 00:22:18;;;;;;;0.22;0.10;;;;;;;25.99;nan;100383.19;7392310;19;20011;-89
2023/11/24 00:24:45;;;;;;;0.10;0.10;;;;;;;25.51;nan;100388.63;7395188;19;20032;-90
2023/11/24 00:27:11;;;;;;;0.30;0.30;;;;;;;31.62;nan;100372.31;7394139;19;20010;-89
2023/11/24 00:29:37;;;;;;;0.10;0.00;;;;;;;30.41;nan;100391.28;7393550;19;20378;-89
2023/11/24 00:32:04;;;;;;;0.10;0.00;;;;;;;25.42;nan;100386.34;7394052;19;20014;-89
2023/11/24 00:34:30;;;;;;;0.45;0.40;;;;;;;28.24;nan;100391.44;7391905;19;20074;-89
2023/11/24 00:36:58;;;;;;;0.10;0.00;;;;;;;21.23;nan;100408.63;7393534;19;20006;-89
2023/11/24 00:39:24;;;;;;;0.10;0.10;;;;;;;21.49;nan;100400.28;7391077;19;20470;-88
2023/11/24 00:41:51;;;;;;;0.38;0.38;;;;;;;27.99;nan;100371.41;7391323;19;20081;-89
2023/11/24 00:44:17;;;;;;;0.10;0.00;;;;;;;30.91;nan;100372.13;7393368;19;20018;-87
2023/11/24 00:46:44;;;;;;;0.43;0.43;;;;;;;24.25;nan;100387.38;7392163;19;20357;-89
2023/11/24 00:49:10;;;;;;;0.10;0.10;;;;;;;31.17;nan;100361.78;7392211;19;20564;-90
2023/11/24 00:51:36;;;;;;;0.10;0.10;;;;;;;31.42;nan;100360.09;7392483;19;20003;-89
2023/11/24 00:54:02;;;;;;;0.10;0.10;;;;;;;28.64;nan;100336.78;7393187;19;20025;-89
2023/11/24 00:56:29;;;;;;;0.10;0.00;;;;;;;29.46;nan;100334.97;7391052;19;20014;-89
2023/11/24 00:58:55;;;;;;;0.10;0.00;;;;;;;20.60;nan;100350.47;7391408;19;20010;-89
2023/11/24 01:01:21;;;;;;;0.10;0.08;;;;;;;25.42;nan;100340.69;7389650;19;20339;-88
2023/11/24 01:03:47;;;;;;;0.10;0.00;;;;;;;17.26;nan;100355.47;7392925;19;20010;-88
2023/11/24 01:06:13;;;;;;;0.10;0.10;;;;;;;19.20;nan;100343.78;7392487;19;20014;-89
2023/11/24 01:08:39;;;;;;;0.10;0.10;;;;;;;16.48;nan;100348.81;7392836;19;20070;-88
2023/11/24 01:11:06;;;;;;;0.10;0.10;;;;;;;20.49;nan;100339.28;7393110;19;20367;-89
2023/11/24 01:13:35;;;;;;;0.10;0.10;;;;;;;24.20;nan;100340.66;7391016;19;20022;-88
2023/11/24 01:16:02;;;;;;;0.10;0.00;;;;;;;18.70;nan;100355.34;7392174;19;20066;-89
2023/11/24 01:18:28;;;;;;;0.22;0.08;;;;;;;19.87;nan;100369.50;7391194;19;20025;-89
2023/11/24 01:20:55;;;;;;;0.10;0.10;;;;;;;28.56;nan;100341.84;7392638;19;20015;-90
2023/11/24 01:23:21;;;;;;;0.00;0.00;;;;;;;19.30;nan;100356.28;7390899;19;20039;-88
2023/11/24 01:25:47;;;;;;;0.10;0.00;;;;;;;19.91;nan;100357.88;7390929;19;20010;-89
2023/11/24 01:28:14;;;;;;;0.10;0.10;;;;;;;25.69;nan;100354.59;7391825;19;20011;-89
2023/11/24 01:30:40;;;;;;;0.10;0.10;;;;;;;30.85;nan;100340.00;7391331;19;20015;-89
2023/11/24 01:33:07;;;;;;;0.10;0.00;;;;;;;34.61;nan;100340.78;7391704;19;20041;-89
2023/11/24 01:35:33;;;;;;;0.10;0.10;;;;;;;28.12;nan;100333.09;7389989;19;20018;-89
2023/11/24 01:37:59;;;;;;;0.10;0.00;;;;;;;21.29;nan;100344.19;7391366;19;20022;-89
2023/11/24 01:40:26;;;;;;;0.10;0.10;;;;;;;25.85;nan;100356.13;7389134;19;20022;-89
2023/11/24 01:42:52;;;;;;;0.10;0.10;;;;;;;27.71;nan;100346.78;7391341;19;20011;-89
2023/11/24 01:45:18;;;;;;;0.10;0.00;;;;;;;33.37;nan;100328.75;7389795;19;20030;-88
2023/11/24 01:47:46;;;;;;;0.10;0.10;;;;;;;34.42;nan;100329.47;7391012;19;20078;-90
2023/11/24 01:50:15;;;;;;;0.10;0.00;;;;;;;32.65;nan;100327.59;7390126;19;20003;-90
2023/11/24 01:52:42;;;;;;;0.10;0.10;;;;;;;34.54;nan;100321.56;7388151;19;20014;-89
2023/11/24 01:55:12;;;;;;;0.10;0.00;;;;;;;33.83;nan;100325.91;7391404;19;20035;-90
2023/11/24 01:57:41;;;;;;;0.10;0.00;;;;;;;34.64;nan;100328.69;7390034;19;20014;-88
2023/11/24 02:00:13;;;;;;;1.20;0.52;;;;;;;33.19;nan;100325.44;7389592;19;20010;-90
2023/11/24 02:02:42;;;;;;;0.10;0.10;;;;;;;34.70;nan;100331.94;7388681;19;20069;-90
2023/11/24 02:05:09;;;;;;;0.10;0.10;;;;;;;32.78;nan;100327.03;7388898;19;20035;-90
2023/11/24 02:07:36;;;;;;;0.10;0.10;;;;;;;33.05;nan;100332.44;7390753;19;20022;-89
2023/11/24 02:10:04;;;;;;;0.10;0.10;;;;;;;32.35;nan;100323.41;7390805;19;20013;-90
2023/11/24 02:12:31;;;;;;;0.10;0.10;;;;;;;34.42;nan;100336.03;7390041;19;20024;-89
2023/11/24 02:14:57;;;;;;;0.10;0.10;;;;;;;34.33;nan;100334.03;7391066;19;20039;-88
2023/11/24 02:17:24;;;;;;;0.10;0.00;;;;;;;34.73;nan;100329.91;7388174;19;20013;-90
2023/11/24 02:19:51;;;;;;;1.05;0.30;;;;;;;32.92;nan;100343.16;7391649;19;20096;-89
2023/11/24 02:22:17;;;;;;;0.50;0.40;;;;;;;33.48;nan;100342.44;7389238;19;20062;-89
2023/11/24 02:24:43;;;;;;;0.10;0.00;;;;;;;30.83;nan;100339.84;7389084;19;20468;-89
2023/11/24 02:27:09;;;;;;;0.10;0.00;;;;;;;31.21;nan;100348.44;7390167;19;20006;-89
2023/11/24 02:29:35;;;;;;;0.10;0.00;;;;;;;31.91;nan;100346.25;7388271;19;20016;-89
2023/11/24 02:32:02;;;;;;;0.10;0.00;;;;;;;26.72;nan;100356.44;7390184;19;20011;-89
2023/11/24 02:34:31;;;;;;;0.10;0.10;;;;;;;21.43;nan;100379.75;7388769;19;20042;-89
2023/11/24 02:36:57;;;;;;;0.60;0.57;;;;;;;20.64;nan;100384.91;7388502;19;20002;-89
2023/11/24 02:39:23;;;;;;;0.10;0.00;;;;;;;20.19;nan;100390.25;7387960;19;20006;-88
2023/11/24 02:41:49;;;;;;;0.10;0.10;;;;;;;27.69;nan;100360.16;7389963;19;20014;-89
2023/11/24 02:44:15;;;;;;;0.10;0.10;;;;;;;32.27;nan;100348.78;7387602;19;20044;-89
2023/11/24 02:46:42;;;;;;;0.10;0.10;;;;;;;32.45;nan;100349.28;7388509;19;20010;-88
2023/11/24 02:49:08;;;;;;;0.10;0.10;;;;;;;31.95;nan;100350.22;7389184;19;20494;-89
2023/11/24 02:51:34;;;;;;;0.10;0.00;;;;;;;29.14;nan;100347.44;7387791;19;20030;-89
2023/11/24 02:54:00;;;;;;;0.00;0.00;;;;;;;28.27;nan;100348.03;7388448;19;20009;-88
2023/11/24 02:56:27;;;;;;;0.10;0.00;;;;;;;29.91;nan;100344.97;7387616;19;20371;-88
2023/11/24 02:58:54;;;;;;;0.10;0.10;;;;;;;26.93;nan;100352.00;7388269;19;20010;-88
2023/11/24 03:01:20;;;;;;;0.10;0.10;;;;;;;29.36;nan;100342.00;7388533;19;20042;-88
2023/11/24 03:03:46;;;;;;;0.10;0.10;;;;;;;24.86;nan;100355.13;7388387;19;20037;-89
2023/11/24 03:06:12;;;;;;;0.13;0.05;;;;;;;23.76;nan;100353.94;7393261;19;20027;-89
2023/11/24 03:08:39;;;;;;;0.10;0.10;;;;;;;20.00;nan;100366.81;7394973;19;20030;-89
2023/11/24 03:11:06;;;;;;;0.10;0.10;;;;;;;26.26;nan;100344.34;7394652;19;20015;-89
2023/11/24 03:13:33;;;;;;;0.10;0.10;;;;;;;26.07;nan;100341.88;7395618;19;20010;-90
2023/11/24 03:16:01;;;;;;;0.10;0.10;;;;;;;31.77;nan;100333.75;7396509;19;20365;-90
2023/11/24 03:18:27;;;;;;;0.10;0.10;;;;;;;30.41;nan;100339.53;7395677;19;20039;-89
2023/11/24 03:20:53;;;;;;;0.10;0.00;;;;;;;31.36;nan;100327.22;7396272;19;20036;-90
2023/11/24 03:23:20;;;;;;;0.10;0.10;;;;;;;32.69;nan;100325.75;7395365;19;20017;-89
2023/11/24 03:25:46;;;;;;;0.10;0.00;;;;;;;32.90;nan;100317.03;7395246;19;20013;-89
2023/11/24 03:28:13;;;;;;;0.10;0.03;;;;;;;30.16;nan;100322.53;7396058;19;20018;-90
2023/11/24 03:30:39;;;;;;;0.10;0.10;;;;;;;32.16;nan;100312.03;7394672;19;20014;-89
2023/11/24 03:33:05;;;;;;;0.10;0.10;;;;;;;32.54;nan;100326.19;7394508;19;20014;-89
2023/11/24 03:35:32;;;;;;;0.10;0.00;;;;;;;32.15;nan;100322.78;7393811;19;20002;-90
2023/11/24 03:37:58;;;;;;;0.10;0.10;;;;;;;32.26;nan;100318.47;7395991;19;20007;-90
2023/11/24 03:40:24;;;;;;;0.10;0.00;;;;;;;25.49;nan;100337.09;7394703;19;20018;-90
2023/11/24 03:42:51;;;;;;;0.10;0.00;;;;;;;32.81;nan;100338.09;7396496;19;20090;-89
2023/11/24 03:45:17;;;;;;;0.10;0.10;;;;;;;33.76;nan;100334.84;7394577;19;20018;-87
2023/11/24 03:47:43;;;;;;;0.10;0.00;;;;;;;34.20;nan;100326.00;7394161;19;20019;-89
2023/11/24 03:50:10;;;;;;;0.10;0.00;;;;;;;34.29;nan;100320.09;7395349;19;20014;-89
2023/11/24 03:52:36;;;;;;;0.10;0.10;;;;;;;35.17;nan;100309.34;7393451;19;20488;-89
2023/11/24 03:55:03;;;;;;;0.10;0.00;;;;;;;35.30;nan;100305.72;7394806;19;20055;-89
2023/11/24 03:57:29;;;;;;;0.10;0.00;;;;;;;35.40;nan;100303.38;7394568;19;20022;-89
2023/11/24 03:59:56;;;;;;;0.10;0.00;;;;;;;35.89;nan;100308.94;7393368;19;19999;-88
2023/11/24 04:02:22;;;;;;;0.10;0.10;;;;;;;35.61;nan;100308.91;7393883;19;19999;-88
2023/11/24 04:04:49;;;;;;;0.57;0.57;;;;;;;35.66;nan;100307.75;7394499;19;20018;-89
2023/11/24 04:07:15;;;;;;;0.10;0.10;;;;;;;34.78;nan;100302.72;7395348;19;20334;-89
2023/11/24 04:09:42;;;;;;;0.10;0.00;;;;;;;34.93;nan;100296.34;7394086;19;19998;-88
2023/11/24 04:12:08;;;;;;;0.10;0.10;;;;;;;34.85;nan;100299.53;7395272;19;20070;-88
2023/11/24 04:14:35;;;;;;;0.10;0.00;;;;;;;35.24;nan;100302.47;7393934;19;20043;-88
2023/11/24 04:17:01;;;;;;;0.40;0.40;;;;;;;35.44;nan;100312.28;7394000;19;20010;-89
2023/11/24 04:19:27;;;;;;;0.10;0.00;;;;;;;35.33;nan;100309.47;7391895;19;20029;-88
2023/11/24 04:21:55;;;;;;;0.10;0.00;;;;;;;34.64;nan;100327.94;7392098;19;20043;-89
2023/11/24 04:24:23;;;;;;;0.10;0.00;;;;;;;34.93;nan;100308.66;7392211;19;20011;-88
2023/11/24 04:26:49;;;;;;;0.10;0.10;;;;;;;34.75;nan;100298.19;7395009;19;20002;-89
2023/11/24 04:29:15;;;;;;;0.10;0.00;;;;;;;32.40;nan;100299.22;7393699;19;19994;-88
2023/11/24 04:31:42;;;;;;;0.10;0.10;;;;;;;21.11;nan;100315.31;7393033;19;20006;-89
2023/11/24 04:34:08;;;;;;;0.10;0.00;;;;;;;36.05;nan;100289.50;7393754;19;20002;-89
2023/11/24 04:36:35;;;;;;;0.10;0.00;;;;;;;24.97;nan;100314.13;7393375;19;20379;-89
2023/11/24 04:39:02;;;;;;;0.10;0.10;;;;;;;20.40;nan;100319.84;7392182;19;20040;-88
2023/11/24 04:41:28;;;;;;;0.10;0.10;;;;;;;34.75;nan;100286.63;7392224;19;20011;-89
2023/11/24 04:43:55;;;;;;;0.10;0.10;;;;;;;23.04;nan;100313.00;7393968;19;20010;-89
2023/11/24 04:46:21;;;;;;;0.10;0.10;;;;;;;15.31;nan;100331.66;7391538;19;20111;-89
2023/11/24 04:48:48;;;;;;;0.10;0.10;;;;;;;18.96;nan;100318.28;7392478;19;20007;-89
2023/11/24 04:51:14;;;;;;;0.10;0.10;;;;;;;28.12;nan;100299.50;7392738;19;20089;-89
2023/11/24 04:53:40;;;;;;;0.55;0.32;;;;;;;34.55;nan;100280.41;7392647;19;20025;-89
2023/11/24 04:56:06;;;;;;;0.10;0.10;;;;;;;31.61;nan;100278.63;7393741;19;20039;-89
2023/11/24 04:58:32;;;;;;;0.10;0.10;;;;;;;36.94;nan;100275.22;7393357;19;20043;-88
2023/11/24 05:00:58;;;;;;;0.10;0.00;;;;;;;31.35;nan;100280.41;7392185;19;20035;-89
2023/11/24 05:03:24;;;;;;;0.10;0.10;;;;;;;24.07;nan;100304.53;7394343;19;20010;-89
2023/11/24 05:05:51;;;;;;;0.10;0.10;;;;;;;21.95;nan;100288.44;7391859;19;20041;-89
2023/11/24 05:08:17;;;;;;;0.10;0.10;;;;;;;14.49;nan;100307.84;7392796;19;20014;-89
2023/11/24 05:10:43;;;;;;;0.10;0.10;;;;;;;27.49;nan;100290.47;7391245;19;20013;-89
2023/11/24 05:13:09;;;;;;;0.10;0.00;;;;;;;14.37;nan;100315.34;7391951;19;20010;-89
2023/11/24 05:15:36;;;;;;;0.10;0.00;;;;;;;15.03;nan;100315.31;7389730;19;20002;-89
2023/11/24 05:18:04;;;;;;;0.10;0.10;;;;;;;14.93;nan;100313.94;7391292;19;20023;-89
2023/11/24 05:20:30;;;;;;;0.15;0.10;;;;;;;14.76;nan;100318.63;7388774;19;20823;-88
2023/11/24 05:22:56;;;;;;;0.10;0.00;;;;;;;14.53;nan;100324.47;7390894;19;20122;-88
2023/11/24 05:25:22;;;;;;;0.10;0.10;;;;;;;12.44;nan;100323.25;7389656;19;20392;-89
2023/11/24 05:27:48;;;;;;;0.10;0.00;;;;;;;11.82;nan;100323.97;7391063;19;20007;-88
2023/11/24 05:30:15;;;;;;;0.00;0.00;;;;;;;16.36;nan;100309.94;7390415;19;20011;-88
2023/11/24 05:32:41;;;;;;;0.10;0.00;;;;;;;25.90;nan;100298.13;7391682;19;20016;-88
2023/11/24 05:35:08;;;;;;;0.10;0.08;;;;;;;30.52;nan;100290.06;7389489;19;20361;-89
2023/11/24 05:37:34;;;;;;;0.10;0.10;;;;;;;14.40;nan;100322.00;7389750;19;20027;-89
2023/11/24 05:40:01;;;;;;;0.10;0.10;;;;;;;10.12;nan;100338.41;7391512;19;20015;-88
2023/11/24 05:42:28;;;;;;;1.55;0.40;;;;;;;9.29;nan;100335.72;7389859;19;20011;-88
2023/11/24 05:44:54;;;;;;;0.20;0.20;;;;;;;9.63;nan;100343.16;7390953;19;20013;-88
2023/11/24 05:47:20;;;;;;;0.10;0.10;;;;;;;9.72;nan;100348.78;7390071;19;20035;-88
2023/11/24 05:49:48;;;;;;;0.10;0.10;;;;;;;10.23;nan;100338.75;7391877;19;20011;-87
2023/11/24 05:52:15;;;;;;;0.10;0.00;;;;;;;9.29;nan;100337.75;7390103;19;20022;-89
2023/11/24 05:54:42;;;;;;;0.10;0.10;;;;;;;8.81;nan;100328.03;7387959;19;20002;-88
2023/11/24 05:57:08;;;;;;;1.20;0.45;;;;;;;8.65;nan;100329.00;7391297;19;20070;-87
2023/11/24 05:59:34;;;;;;;0.10;0.10;;;;;;;8.75;nan;100336.16;7388782;19;19999;-89
2023/11/24 06:02:03;;;;;;;0.10;0.00;;;;;;;8.49;nan;100343.03;7390642;19;20025;-89
2023/11/24 06:04:29;;;;;;;0.20;0.20;;;;;;;8.15;nan;100343.00;7390523;19;20015;-87
2023/11/24 06:06:56;;;;;;;0.10;0.00;;;;;;;7.94;nan;100349.25;7391137;19;20461;-88
2023/11/24 06:09:23;;;;;;;0.10;0.10;;;;;;;7.97;nan;100360.22;7389436;19;20420;-88
2023/11/24 06:11:49;;;;;;;0.10;0.10;;;;;;;8.63;nan;100356.44;7390933;19;20574;-88
2023/11/24 06:14:15;;;;;;;0.10;0.10;;;;;;;8.01;nan;100349.78;7390150;19;20002;-88
2023/11/24 06:16:41;;;;;;;0.10;0.10;;;;;;;8.07;nan;100333.34;7388225;19;20006;-88
2023/11/24 06:19:07;;;;;;;0.10;0.00;;;;;;;8.03;nan;100336.25;7390446;19;20039;-88
2023/11/24 06:21:35;;;;;;;0.10;0.10;;;;;;;8.27;nan;100339.47;7388072;19;20009;-88
2023/11/24 06:24:07;;;;;;;0.10;0.10;;;;;;;7.94;nan;100349.25;7201222;19;20509;-89
2023/11/24 06:26:38;;;;;;;0.10;0.10;;;;;;;7.84;nan;100353.91;7388208;19;20025;-87
2023/11/24 06:29:04;;;;;;;0.15;0.15;;;;;;;8.11;nan;100347.88;7389235;19;20011;-88
2023/11/24 06:31:30;;;;;;;0.10;0.10;;;;;;;8.04;nan;100345.34;7386361;19;20031;-88
2023/11/24 06:33:57;;;;;;;0.98;0.32;;;;;;;7.82;nan;100330.63;7389309;19;20011;-88
2023/11/24 06:36:23;;;;;;;0.10;0.00;;;;;;;7.75;nan;100330.84;7388454;19;20006;-89
2023/11/24 06:38:49;;;;;;;0.10;0.10;;;;;;;8.06;nan;100335.34;7389609;19;20400;-88
2023/11/24 06:41:15;;;;;;;0.10;0.00;;;;;;;7.88;nan;100328.84;7395065;19;20016;-88
2023/11/24 06:43:41;;;;;;;0.10;0.00;;;;;;;7.76;nan;100324.06;7394860;19;20007;-89
2023/11/24 06:46:07;;;;;;;0.10;0.00;;;;;;;7.76;nan;100338.72;7396630;19;20018;-89
2023/11/24 06:48:34;;;;;;;0.10;0.00;;;;;;;7.81;nan;100345.69;7395605;19;20018;-89
2023/11/24 06:51:01;;;;;;;0.10;0.10;;;;;;;7.81;nan;100357.56;7396018;19;20055;-88
2023/11/24 06:53:28;;;;;;;0.10;0.00;;;;;;;7.79;nan;100343.38;7400092;19;20032;-87
2023/11/24 06:55:54;;;;;;;0.10;0.10;;;;;;;7.79;nan;100337.84;7400969;19;20500;-88
2023/11/24 06:58:20;;;;;;;0.10;0.00;;;;;;;7.92;nan;100340.59;7399351;19;20371;-88
2023/11/24 07:00:50;;;;;;;0.10;0.10;;;;;;;7.89;nan;100335.94;7398506;19;20051;-90
2023/11/24 07:03:16;;;;;;;0.10;0.00;;;;;;;7.89;nan;100352.56;7400573;19;20095;-89
2023/11/24 07:05:42;;;;;;;0.45;0.32;;;;;;;7.88;nan;100351.03;7398896;19;20017;-89
2023/11/24 07:08:09;;;;;;;0.10;0.10;;;;;;;8.01;nan;100343.47;7400610;19;20621;-89
2023/11/24 07:10:35;;;;;;;0.70;0.47;;;;;;;8.08;nan;100357.88;7398724;19;20053;-90
2023/11/24 07:13:02;;;;;;;0.10;0.00;;;;;;;8.02;nan;100375.50;7397821;19;20006;-90
2023/11/24 07:15:28;;;;;;;0.10;0.10;;;;;;;7.92;nan;100371.09;7396206;19;20018;-89
2023/11/24 07:17:54;;;;;;;0.10;0.00;;;;;;;7.85;nan;100365.78;7397084;19;20014;-89
2023/11/24 07:20:21;;;;;;;0.10;0.10;;;;;;;7.91;nan;100366.75;7395345;19;20575;-90
2023/11/24 07:22:48;;;;;;;0.10;0.10;;;;;;;7.89;nan;100386.63;7396558;19;20014;-89
2023/11/24 07:25:14;;;;;;;0.10;0.10;;;;;;;8.31;nan;100401.16;7395893;19;20358;-89
2023/11/24 07:27:44;;;;;;;0.10;0.10;;;;;;;7.98;nan;100406.16;7395991;19;20095;-90
2023/11/24 07:30:11;;;;;;;0.10;0.10;;;;;;;7.91;nan;100405.59;7397739;19;20049;-90
2023/11/24 07:32:37;;;;;;;0.10;0.10;;;;;;;7.81;nan;100407.47;7394328;19;20011;-89
2023/11/24 07:35:04;;;;;;;0.10;0.10;;;;;;;7.84;nan;100408.59;7396977;19;20014;-89
2023/11/24 07:37:30;;;;;;;0.10;0.00;;;;;;;7.82;nan;100397.19;7395635;19;20263;-89
2023/11/24 07:39:56;;;;;;;0.10;0.10;;;;;;;7.81;nan;100396.41;7396916;19;20010;-90
2023/11/24 07:42:23;;;;;;;0.10;0.10;;;;;;;7.85;nan;100396.28;7394353;19;20358;-89
2023/11/24 07:44:49;;;;;;;0.10;0.10;;;;;;;7.79;nan;100403.59;7395475;19;20032;-89
2023/11/24 07:47:18;;;;;;;0.10;0.00;;;;;;;7.92;nan;100391.28;7394507;19;20010;-91
2023/11/24 07:49:45;;;;;;;0.10;0.00;;;;;;;7.90;nan;100390.97;7394590;19;20011;-90
2023/11/24 07:52:11;;;;;;;0.10;0.10;;;;;;;7.84;nan;100389.19;7393075;19;20010;-90
2023/11/24 07:54:40;;;;;;;0.10;0.10;;;;;;;7.99;nan;100401.38;7394788;19;20006;-90
2023/11/24 07:57:07;;;;;;;0.10;0.10;;;;;;;8.05;nan;100402.38;7394486;19;20359;-90
2023/11/24 07:59:36;;;;;;;0.10;0.10;;;;;;;7.73;nan;100416.47;7393624;19;20519;-89
2023/11/24 08:02:02;;;;;;;0.28;0.28;;;;;;;7.81;nan;100409.47;7371152;19;20002;-94
2023/11/24 08:04:28;;;;;;;0.10;0.10;;;;;;;7.64;nan;100419.91;7394920;19;20015;-94
2023/11/24 08:06:55;;;;;;;0.20;0.20;;;;;;;7.51;nan;100411.53;7393193;19;20045;-95
2023/11/24 08:09:21;;;;;;;0.10;0.10;;;;;;;7.57;nan;100409.78;7397542;19;20006;-94
2023/11/24 08:11:47;;;;;;;0.10;0.10;;;;;;;7.40;nan;100408.31;7395850;19;20010;-94
2023/11/24 08:14:14;;;;;;;0.10;0.10;;;;;;;7.23;nan;100401.31;7392829;19;20010;-91
2023/11/24 08:16:40;;;;;;;0.10;0.03;;;;;;;7.02;nan;100390.06;7390568;19;20046;-91
2023/11/24 08:19:08;;;;;;;0.10;0.10;;;;;;;6.84;nan;100401.63;7395077;19;20044;-92
2023/11/24 08:21:34;;;;;;;0.10;0.10;;;;;;;6.74;nan;100402.66;7390637;19;20034;-94
2023/11/24 08:24:00;;;;;;;0.10;0.10;;;;;;;6.90;nan;100416.47;7391725;19;20018;-93
2023/11/24 08:26:27;;;;;;;0.22;0.22;;;;;;;6.44;nan;100411.34;7393018;19;20473;-92
2023/11/24 08:28:53;;;;;;;0.10;0.10;;;;;;;6.43;nan;100409.81;7398112;19;20002;-93
2023/11/24 08:31:20;;;;;;;0.65;0.55;;;;;;;6.45;nan;100418.47;7394997;19;20010;-94
2023/11/24 08:33:48;;;;;;;0.10;0.00;;;;;;;6.84;nan;100423.75;7394592;19;20006;-93
2023/11/24 08:36:15;;;;;;;0.10;0.10;;;;;;;6.52;nan;100437.66;7394338;19;20014;-93
2023/11/24 08:38:41;;;;;;;0.10;0.10;;;;;;;7.35;nan;100435.78;7391682;19;20744;-94
2023/11/24 08:41:16;;;;;;;0.10;0.10;;;;;;;8.13;nan;100439.75;7395472;19;20014;-94
2023/11/24 08:43:47;;;;;;;0.20;0.20;;;;;;;8.28;nan;100446.44;7393746;19;20011;-93
2023/11/24 08:46:13;;;;;;;0.10;0.10;;;;;;;6.64;nan;100456.31;7394021;19;20005;-93
2023/11/24 08:48:40;;;;;;;0.10;0.10;;;;;;;6.42;nan;100458.03;7392038;19;20007;-93
2023/11/24 08:51:09;;;;;;;0.10;0.10;;;;;;;6.33;nan;100455.09;7392642;19;20025;-93
2023/11/24 08:53:35;;;;;;;0.10;0.10;;;;;;;8.19;nan;100454.63;7392154;19;20483;-93
2023/11/24 08:56:05;;;;;;;0.10;0.10;;;;;;;8.11;nan;100454.06;7392178;19;20007;-93
2023/11/24 08:58:32;;;;;;;0.20;0.20;;;;;;;6.37;nan;100466.84;7392102;19;20006;-93
2023/11/24 09:00:58;;;;;;;0.10;0.10;;;;;;;6.33;nan;100468.94;7390622;19;20405;-92
2023/11/24 09:03:24;;;;;;;0.10;0.10;;;;;;;6.24;nan;100468.78;7388223;19;20336;-93
2023/11/24 09:05:52;;;;;;;0.10;0.10;;;;;;;6.22;nan;100468.41;7394013;19;20083;-92
2023/11/24 09:08:19;;;;;;;0.20;0.20;;;;;;;6.25;nan;100481.38;7392753;19;20015;-91
2023/11/24 09:10:45;;;;;;;0.10;0.10;;;;;;;6.15;nan;100482.41;7392113;19;20007;-92
2023/11/24 09:13:13;;;;;;;0.57;0.57;;;;;;;6.12;nan;100489.56;7391637;19;20018;-92
2023/11/24 09:15:43;;;;;;;0.10;0.10;;;;;;;11.84;nan;100488.13;7391084;19;20003;-93
2023/11/24 09:18:10;;;;;;;0.10;0.10;;;;;;;23.40;nan;100469.59;7394792;19;20006;-91
2023/11/24 09:20:37;;;;;;;0.10;0.10;;;;;;;24.49;nan;100466.72;7393847;19;20022;-91
2023/11/24 09:23:04;;;;;;;0.10;0.10;;;;;;;11.19;nan;100489.44;7389731;19;20002;-90
2023/11/24 09:25:32;;;;;;;0.10;0.10;;;;;;;8.00;nan;100497.22;7390710;19;20017;-90
2023/11/24 09:27:59;;;;;;;0.10;0.10;;;;;;;7.17;nan;100496.47;7391924;19;20074;-90
2023/11/24 09:30:26;;;;;;;0.10;0.10;;;;;;;7.06;nan;100491.19;7389104;19;20010;-90
2023/11/24 09:32:54;;;;;;;0.50;0.50;;;;;;;7.03;nan;100489.31;7390284;19;20017;-90
2023/11/24 09:35:26;;;;;;;0.10;0.10;;;;;;;6.95;nan;100493.47;7389340;19;20038;-90
2023/11/24 09:37:52;;;;;;;0.10;0.00;;;;;;;7.11;nan;100501.75;7390095;19;20015;-90
2023/11/24 09:40:22;;;;;;;0.20;0.20;;;;;;;7.38;nan;100502.19;7390596;19;20006;-89
2023/11/24 09:42:49;;;;;;;0.10;0.10;;;;;;;6.81;nan;100507.66;7389730;19;20014;-90
2023/11/24 09:45:19;;;;;;;0.10;0.00;;;;;;;7.00;nan;100501.22;7390244;19;20042;-90
2023/11/24 09:47:49;;;;;;;0.10;0.10;;;;;;;7.31;nan;100501.59;7390779;19;20015;-90
2023/11/24 09:50:23;;;;;;;0.10;0.10;;;;;;;7.88;nan;100506.31;7389335;19;20005;-90
2023/11/24 09:52:51;;;;;;;0.10;0.10;;;;;;;7.84;nan;100506.41;7389378;19;20022;-90
2023/11/24 09:55:17;;;;;;;1.05;0.47;;;;;;;7.88;nan;100511.84;7391975;19;20023;-90
2023/11/24 09:57:44;;;;;;;0.10;0.10;;;;;;;7.48;nan;100511.41;7389465;19;20018;-89
2023/11/24 10:00:11;;;;;;;0.10;0.00;;;;;;;8.86;nan;100503.19;7389729;19;20011;-90
2023/11/24 10:02:39;;;;;;;0.10;0.10;;;;;;;8.59;nan;100497.38;7390326;19;20033;-90
2023/11/24 10:05:08;;;;;;;0.10;0.05;;;;;;;8.68;nan;100503.03;7390933;19;20074;-90
2023/11/24 10:07:34;;;;;;;0.10;0.00;;;;;;;9.16;nan;100502.53;7387970;19;20014;-90
2023/11/24 10:10:04;;;;;;;0.10;0.00;;;;;;;9.69;nan;100508.19;7391190;19;20013;-89
2023/11/24 10:12:30;;;;;;;0.10;0.10;;;;;;;9.32;nan;100518.28;7390362;19;20017;-90
2023/11/24 10:14:57;;;;;;;0.10;0.10;;;;;;;9.18;nan;100519.53;7393843;19;20019;-89
2023/11/24 10:17:23;;;;;;;0.10;0.03;;;;;;;9.10;nan;100518.22;7395798;19;20010;-89
2023/11/24 10:19:51;;;;;;;0.10;0.10;;;;;;;9.03;nan;100524.03;7397494;19;20018;-89
2023/11/24 10:22:19;;;;;;;0.10;0.10;;;;;;;8.94;nan;100515.59;7393511;19;20011;-83
2023/11/24 10:24:47;;;;;;;0.10;0.10;;;;;;;8.79;nan;100513.78;7394000;19;20327;-90
2023/11/24 10:27:21;;;;;;;0.10;0.10;;;;;;;8.75;nan;100519.41;7397564;19;20017;-90
2023/11/24 10:29:48;;;;;;;0.10;0.10;;;;;;;8.85;nan;100520.31;7397475;19;20566;-90
2023/11/24 10:32:19;;;;;;;0.10;0.03;;;;;;;8.80;nan;100518.88;7394814;19;20070;-90
2023/11/24 10:34:49;;;;;;;0.90;0.35;;;;;;;8.77;nan;100522.53;7397180;19;20013;-90
2023/11/24 10:37:20;;;;;;;0.10;0.10;;;;;;;8.76;nan;100522.97;7397308;19;20006;-90
2023/11/24 10:39:51;;;;;;;0.10;0.10;;;;;;;8.80;nan;100529.19;7395489;19;20356;-91
2023/11/24 10:42:20;;;;;;;0.10;0.10;;;;;;;8.75;nan;100530.53;7395318;19;20361;-88
2023/11/24 10:44:55;;;;;;;0.28;0.20;;;;;;;8.80;nan;100516.09;7396593;19;20006;-90
2023/11/24 10:47:28;;;;;;;0.10;0.10;;;;;;;8.78;nan;100512.97;7396135;19;20018;-91
2023/11/24 10:50:07;;;;;;;0.10;0.10;;;;;;;8.87;nan;100526.97;7395554;19;20010;-87
2023/11/24 10:52:41;;;;;;;0.10;0.10;;;;;;;8.78;nan;100512.97;7394541;19;20011;-87
2023/11/24 10:55:13;;;;;;;0.10;0.10;;;;;;;8.74;nan;100512.34;7398757;19;20006;-87
2023/11/24 10:57:41;;;;;;;0.10;0.10;;;;;;;8.62;nan;100504.78;7395263;19;20363;-86
2023/11/24 11:00:14;;;;;;;0.10;0.10;;;;;;;8.66;nan;100507.47;7394283;19;20101;-87
2023/11/24 11:02:41;;;;;;;0.10;0.00;;;;;;;18.40;nan;100486.19;7392874;19;20002;-86
2023/11/24 11:05:17;;;;;;;0.20;0.20;;;;;;;11.41;nan;100495.59;7398037;19;20006;-87
2023/11/24 11:08:13;;;;;;;0.28;0.28;;;;;;;9.65;nan;100490.88;7393554;19;20022;-86
2023/11/24 11:10:45;;;;;;;0.10;0.10;;;;;;;11.57;nan;100488.16;7393510;19;20426;-87
2023/11/24 11:13:14;;;;;;;0.10;0.10;;;;;;;9.62;nan;100494.53;7395867;19;20007;-86
2023/11/24 11:15:41;;;;;;;0.10;0.10;;;;;;;9.01;nan;100484.81;7395123;19;20020;-86
2023/11/24 11:18:15;;;;;;;0.20;0.20;;;;;;;9.06;nan;100489.81;7393990;19;20002;-86
2023/11/24 11:20:44;;;;;;;0.10;0.10;;;;;;;9.09;nan;100488.13;7394317;19;20458;-88
2023/11/24 11:23:17;;;;;;;0.10;0.10;;;;;;;10.55;nan;100477.41;7394611;19;20010;-85
2023/11/24 11:25:46;;;;;;;0.10;0.10;;;;;;;14.60;nan;100464.16;7390917;19;20007;-87
2023/11/24 11:28:19;;;;;;;0.20;0.20;;;;;;;9.80;nan;100464.06;7394955;19;20110;-87
2023/11/24 11:30:50;;;;;;;0.10;0.10;;;;;;;15.40;nan;100457.78;7393109;19;20029;-87
2023/11/24 11:33:19;;;;;;;0.10;0.10;;;;;;;22.82;nan;100438.50;7394605;19;20063;-87
2023/11/24 11:35:46;;;;;;;1.10;0.57;;;;;;;25.77;nan;100432.44;7392743;19;20045;-87
2023/11/24 11:38:33;;;;;;;0.10;0.10;;;;;;;26.60;nan;100424.66;7395426;19;20016;-86
2023/11/24 11:41:00;;;;;;;0.70;0.20;;;;;;;21.19;nan;100445.00;7392809;19;20023;-87
2023/11/24 11:43:27;;;;;;;0.10;0.10;;;;;;;31.99;nan;100424.66;7391206;19;19995;-86
2023/11/24 11:45:57;;;;;;;0.22;0.10;;;;;;;28.67;nan;100427.34;7392892;19;19998;-87